Gen Manuel Marquez De Leon, Mexico

9:11 PM MDT on August 29, 2016 (GMT -0600)
Gen Manuel Marquez De Leon | | Change Station

Elev 69 ft 24.07 °N, 110.36 °W | Updated 27 minutes ago

Clear
Clear
86 °F
Feels Like 87 °F
N
5
Wind Variable Wind from NW

Today
High -- | Low -- °F
--% Chance of Precip.
Yesterday
High -- | Low -- °F
Precip. -- in
Pressure 29.81 in
Visibility 10.0 miles
Clouds Clear
Heat Index 87 °F
Dew Point 64 °F
Humidity 48%
Rainfall 0.00 in
Snow Depth Not available.
7:02 AM 7:41 PM
Waning Crescent, 5% visible
METAR MMLP 300244Z 31004KT 10SM SKC 30/18 A2982 RMK SLP095 52019 963
Pressure 29.81 in
Visibility 10.0 miles
Clouds Clear
Heat Index 87 °F
Dew Point 64 °F
Humidity 48%
Rainfall 0.00 in
Snow Depth Not available.
7:02 AM 7:41 PM
Waning Crescent, 5% visible
METAR MMLP 300244Z 31004KT 10SM SKC 30/18 A2982 RMK SLP095 52019 963

10-Day Weather Forecast

No radar image for this location.
×

Almanac

Astronomy

Aug. 29, 2016 Rise Set
Actual Time
Civil Twilight
Nautical Twilight
Astronomical Twilight
Moon
Length of Visible Light
Length of Day
Tomorrow will be .
, % of the Moon is Illuminated

Today's Extremes

Country Highs Country Lows

Community

WunderPhotos

Upload Photos

1,935,773 photos uploaded!

WunderBlog® & News

Nearby

Air Quality

  Air Quality AQ Index Pollutant
Not available.

Snow Depth

Station Depth Elevation

Earthquake Activity

City Distance Mag. Time & Date
Minimum magnitude displayed is 2.5.

Coastal Water Temperatures

Place Temperature

Stations

Nearby Weather Stations

Station Location Temp. Windchill Dew Point Humidity Wind Precip. Elev Updated Type